sensor_id;sensor_type;location;lat;lon;timestamp;P1;durP1;ratioP1;P2;durP2;ratioP2
5475;SDS011;2760;50.000;9.194;2022-10-16T00:01:15;9.57;;;2.37;;
5475;SDS011;2760;50.000;9.194;2022-10-16T00:03:43;5.40;;;2.80;;
5475;SDS011;2760;50.000;9.194;2022-10-16T00:06:11;6.30;;;2.77;;
5475;SDS011;2760;50.000;9.194;2022-10-16T00:08:39;4.90;;;3.13;;
5475;SDS011;2760;50.000;9.194;2022-10-16T00:11:10;12.10;;;3.20;;
5475;SDS011;2760;50.000;9.194;2022-10-16T00:13:40;9.20;;;3.40;;
5475;SDS011;2760;50.000;9.194;2022-10-16T00:16:10;4.03;;;3.30;;
5475;SDS011;2760;50.000;9.194;2022-10-16T00:18:38;6.97;;;3.07;;
5475;SDS011;2760;50.000;9.194;2022-10-16T00:21:06;12.77;;;3.83;;
5475;SDS011;2760;50.000;9.194;2022-10-16T00:23:34;4.63;;;3.00;;
5475;SDS011;2760;50.000;9.194;2022-10-16T00:26:02;2.87;;;2.60;;
5475;SDS011;2760;50.000;9.194;2022-10-16T00:28:31;4.60;;;3.17;;
5475;SDS011;2760;50.000;9.194;2022-10-16T00:31:02;7.73;;;2.83;;
5475;SDS011;2760;50.000;9.194;2022-10-16T00:33:31;5.70;;;3.50;;
5475;SDS011;2760;50.000;9.194;2022-10-16T00:35:59;5.83;;;3.10;;
5475;SDS011;2760;50.000;9.194;2022-10-16T00:38:26;3.30;;;2.97;;
5475;SDS011;2760;50.000;9.194;2022-10-16T00:40:53;5.07;;;3.00;;
5475;SDS011;2760;50.000;9.194;2022-10-16T00:43:34;3.23;;;2.93;;
5475;SDS011;2760;50.000;9.194;2022-10-16T00:46:04;7.13;;;4.60;;
5475;SDS011;2760;50.000;9.194;2022-10-16T00:48:39;6.50;;;3.70;;
5475;SDS011;2760;50.000;9.194;2022-10-16T00:51:06;7.43;;;4.17;;
5475;SDS011;2760;50.000;9.194;2022-10-16T00:53:34;4.43;;;4.03;;
5475;SDS011;2760;50.000;9.194;2022-10-16T00:56:01;3.80;;;3.30;;
5475;SDS011;2760;50.000;9.194;2022-10-16T00:58:29;5.57;;;2.67;;
5475;SDS011;2760;50.000;9.194;2022-10-16T01:00:56;3.13;;;2.80;;
5475;SDS011;2760;50.000;9.194;2022-10-16T01:03:25;5.27;;;2.47;;
5475;SDS011;2760;50.000;9.194;2022-10-16T01:05:57;4.67;;;2.10;;
5475;SDS011;2760;50.000;9.194;2022-10-16T01:08:44;3.43;;;2.40;;
5475;SDS011;2760;50.000;9.194;2022-10-16T01:11:17;3.30;;;3.00;;
5475;SDS011;2760;50.000;9.194;2022-10-16T01:13:50;3.13;;;2.80;;
5475;SDS011;2760;50.000;9.194;2022-10-16T01:16:22;4.20;;;3.00;;
5475;SDS011;2760;50.000;9.194;2022-10-16T01:18:56;3.10;;;2.80;;
5475;SDS011;2760;50.000;9.194;2022-10-16T01:21:28;2.90;;;2.70;;
5475;SDS011;2760;50.000;9.194;2022-10-16T01:24:01;3.03;;;2.70;;
5475;SDS011;2760;50.000;9.194;2022-10-16T01:26:39;3.30;;;3.00;;
5475;SDS011;2760;50.000;9.194;2022-10-16T01:29:20;5.23;;;2.80;;
5475;SDS011;2760;50.000;9.194;2022-10-16T01:31:53;7.30;;;2.97;;
5475;SDS011;2760;50.000;9.194;2022-10-16T01:34:28;2.73;;;2.53;;
5475;SDS011;2760;50.000;9.194;2022-10-16T01:37:00;2.90;;;2.10;;
5475;SDS011;2760;50.000;9.194;2022-10-16T01:39:32;2.47;;;2.27;;
5475;SDS011;2760;50.000;9.194;2022-10-16T01:42:06;7.30;;;3.50;;
5475;SDS011;2760;50.000;9.194;2022-10-16T01:44:38;11.07;;;5.60;;
5475;SDS011;2760;50.000;9.194;2022-10-16T01:47:07;7.03;;;4.53;;
5475;SDS011;2760;50.000;9.194;2022-10-16T01:49:38;11.53;;;6.13;;
5475;SDS011;2760;50.000;9.194;2022-10-16T01:52:07;7.77;;;4.70;;
5475;SDS011;2760;50.000;9.194;2022-10-16T01:54:39;2.47;;;2.27;;
5475;SDS011;2760;50.000;9.194;2022-10-16T01:57:08;2.47;;;2.30;;
5475;SDS011;2760;50.000;9.194;2022-10-16T01:59:41;4.83;;;1.50;;
5475;SDS011;2760;50.000;9.194;2022-10-16T02:02:11;1.50;;;1.40;;
5475;SDS011;2760;50.000;9.194;2022-10-16T02:04:39;3.00;;;1.60;;
5475;SDS011;2760;50.000;9.194;2022-10-16T02:07:10;1.53;;;1.43;;
5475;SDS011;2760;50.000;9.194;2022-10-16T02:09:37;3.33;;;1.70;;
5475;SDS011;2760;50.000;9.194;2022-10-16T02:12:06;0.90;;;0.90;;
5475;SDS011;2760;50.000;9.194;2022-10-16T02:14:38;2.20;;;1.27;;
5475;SDS011;2760;50.000;9.194;2022-10-16T02:17:12;2.13;;;1.10;;
5475;SDS011;2760;50.000;9.194;2022-10-16T02:19:40;1.40;;;1.30;;
5475;SDS011;2760;50.000;9.194;2022-10-16T02:22:08;3.80;;;1.50;;
5475;SDS011;2760;50.000;9.194;2022-10-16T02:24:43;3.27;;;2.50;;
5475;SDS011;2760;50.000;9.194;2022-10-16T02:27:17;2.67;;;2.27;;
5475;SDS011;2760;50.000;9.194;2022-10-16T02:29:52;4.87;;;2.90;;
5475;SDS011;2760;50.000;9.194;2022-10-16T02:32:24;3.00;;;2.70;;
5475;SDS011;2760;50.000;9.194;2022-10-16T02:34:56;7.30;;;2.90;;
5475;SDS011;2760;50.000;9.194;2022-10-16T02:37:25;3.57;;;2.43;;
5475;SDS011;2760;50.000;9.194;2022-10-16T02:39:55;7.53;;;2.43;;
5475;SDS011;2760;50.000;9.194;2022-10-16T02:42:27;3.30;;;3.00;;
5475;SDS011;2760;50.000;9.194;2022-10-16T02:44:56;4.60;;;2.90;;
5475;SDS011;2760;50.000;9.194;2022-10-16T02:47:24;3.00;;;2.80;;
5475;SDS011;2760;50.000;9.194;2022-10-16T02:49:51;8.33;;;5.13;;
5475;SDS011;2760;50.000;9.194;2022-10-16T02:52:18;13.37;;;5.37;;
5475;SDS011;2760;50.000;9.194;2022-10-16T02:54:45;5.17;;;3.87;;
5475;SDS011;2760;50.000;9.194;2022-10-16T02:57:12;4.50;;;4.10;;
5475;SDS011;2760;50.000;9.194;2022-10-16T02:59:39;5.77;;;4.70;;
5475;SDS011;2760;50.000;9.194;2022-10-16T03:02:07;8.17;;;5.40;;
5475;SDS011;2760;50.000;9.194;2022-10-16T03:04:34;27.50;;;11.20;;
5475;SDS011;2760;50.000;9.194;2022-10-16T03:07:01;28.27;;;13.37;;
5475;SDS011;2760;50.000;9.194;2022-10-16T03:09:28;21.20;;;8.57;;
5475;SDS011;2760;50.000;9.194;2022-10-16T03:11:55;5.87;;;4.50;;
5475;SDS011;2760;50.000;9.194;2022-10-16T03:14:22;3.87;;;3.57;;
5475;SDS011;2760;50.000;9.194;2022-10-16T03:16:49;5.20;;;2.00;;
5475;SDS011;2760;50.000;9.194;2022-10-16T03:19:17;2.10;;;2.00;;
5475;SDS011;2760;50.000;9.194;2022-10-16T03:21:44;2.27;;;2.13;;
5475;SDS011;2760;50.000;9.194;2022-10-16T03:24:12;2.87;;;2.53;;
5475;SDS011;2760;50.000;9.194;2022-10-16T03:26:38;3.33;;;2.67;;
5475;SDS011;2760;50.000;9.194;2022-10-16T03:29:06;7.40;;;3.03;;
5475;SDS011;2760;50.000;9.194;2022-10-16T03:31:33;3.20;;;2.97;;
5475;SDS011;2760;50.000;9.194;2022-10-16T03:34:00;3.40;;;3.10;;
5475;SDS011;2760;50.000;9.194;2022-10-16T03:36:28;7.83;;;3.93;;
5475;SDS011;2760;50.000;9.194;2022-10-16T03:38:55;5.27;;;4.30;;
5475;SDS011;2760;50.000;9.194;2022-10-16T03:41:22;4.83;;;4.33;;
5475;SDS011;2760;50.000;9.194;2022-10-16T03:43:49;7.57;;;5.20;;
5475;SDS011;2760;50.000;9.194;2022-10-16T03:46:16;5.10;;;4.00;;
5475;SDS011;2760;50.000;9.194;2022-10-16T03:48:43;8.73;;;4.30;;
5475;SDS011;2760;50.000;9.194;2022-10-16T03:51:10;4.20;;;3.80;;
5475;SDS011;2760;50.000;9.194;2022-10-16T03:53:38;4.33;;;3.33;;
5475;SDS011;2760;50.000;9.194;2022-10-16T03:56:05;5.60;;;3.43;;
5475;SDS011;2760;50.000;9.194;2022-10-16T03:58:32;3.13;;;2.83;;
5475;SDS011;2760;50.000;9.194;2022-10-16T04:00:59;6.23;;;3.27;;
5475;SDS011;2760;50.000;9.194;2022-10-16T04:03:26;10.03;;;3.17;;
5475;SDS011;2760;50.000;9.194;2022-10-16T04:05:53;4.33;;;3.10;;
5475;SDS011;2760;50.000;9.194;2022-10-16T04:08:20;3.50;;;3.20;;
5475;SDS011;2760;50.000;9.194;2022-10-16T04:10:49;5.23;;;3.53;;
5475;SDS011;2760;50.000;9.194;2022-10-16T04:13:16;6.90;;;3.83;;
5475;SDS011;2760;50.000;9.194;2022-10-16T04:15:44;5.07;;;4.10;;
5475;SDS011;2760;50.000;9.194;2022-10-16T04:18:11;6.53;;;3.90;;
5475;SDS011;2760;50.000;9.194;2022-10-16T04:20:38;7.10;;;4.27;;
5475;SDS011;2760;50.000;9.194;2022-10-16T04:23:05;4.10;;;3.10;;
5475;SDS011;2760;50.000;9.194;2022-10-16T04:25:32;3.33;;;2.60;;
5475;SDS011;2760;50.000;9.194;2022-10-16T04:28:00;3.87;;;2.53;;
5475;SDS011;2760;50.000;9.194;2022-10-16T04:30:27;2.30;;;2.00;;
5475;SDS011;2760;50.000;9.194;2022-10-16T04:32:54;2.90;;;2.70;;
5475;SDS011;2760;50.000;9.194;2022-10-16T04:35:21;4.33;;;3.47;;
5475;SDS011;2760;50.000;9.194;2022-10-16T04:37:48;4.50;;;4.10;;
5475;SDS011;2760;50.000;9.194;2022-10-16T04:40:15;4.13;;;3.00;;
5475;SDS011;2760;50.000;9.194;2022-10-16T04:42:42;3.30;;;3.00;;
5475;SDS011;2760;50.000;9.194;2022-10-16T04:45:11;3.23;;;2.90;;
5475;SDS011;2760;50.000;9.194;2022-10-16T04:47:38;3.30;;;3.00;;
5475;SDS011;2760;50.000;9.194;2022-10-16T04:50:05;3.30;;;3.00;;
5475;SDS011;2760;50.000;9.194;2022-10-16T04:52:32;3.00;;;2.73;;
5475;SDS011;2760;50.000;9.194;2022-10-16T04:54:59;12.43;;;6.80;;
5475;SDS011;2760;50.000;9.194;2022-10-16T04:57:28;3.70;;;2.73;;
5475;SDS011;2760;50.000;9.194;2022-10-16T04:59:55;3.13;;;2.93;;
5475;SDS011;2760;50.000;9.194;2022-10-16T05:02:23;2.97;;;2.67;;
5475;SDS011;2760;50.000;9.194;2022-10-16T05:04:50;5.53;;;2.60;;
5475;SDS011;2760;50.000;9.194;2022-10-16T05:07:18;3.13;;;2.80;;
5475;SDS011;2760;50.000;9.194;2022-10-16T05:09:45;4.03;;;3.33;;
5475;SDS011;2760;50.000;9.194;2022-10-16T05:12:12;3.93;;;2.90;;
5475;SDS011;2760;50.000;9.194;2022-10-16T05:14:38;5.87;;;3.07;;
5475;SDS011;2760;50.000;9.194;2022-10-16T05:17:05;6.93;;;3.37;;
5475;SDS011;2760;50.000;9.194;2022-10-16T05:19:34;4.87;;;3.10;;
5475;SDS011;2760;50.000;9.194;2022-10-16T05:22:01;5.83;;;3.73;;
5475;SDS011;2760;50.000;9.194;2022-10-16T05:24:28;3.50;;;3.20;;
5475;SDS011;2760;50.000;9.194;2022-10-16T05:26:55;6.93;;;3.60;;
5475;SDS011;2760;50.000;9.194;2022-10-16T05:29:22;3.63;;;3.33;;
5475;SDS011;2760;50.000;9.194;2022-10-16T05:31:52;6.03;;;3.33;;
5475;SDS011;2760;50.000;9.194;2022-10-16T05:34:19;4.43;;;2.80;;
5475;SDS011;2760;50.000;9.194;2022-10-16T05:36:48;6.33;;;5.03;;
5475;SDS011;2760;50.000;9.194;2022-10-16T05:39:15;5.63;;;4.30;;
5475;SDS011;2760;50.000;9.194;2022-10-16T05:41:42;5.63;;;3.87;;
5475;SDS011;2760;50.000;9.194;2022-10-16T05:44:09;4.73;;;3.10;;
5475;SDS011;2760;50.000;9.194;2022-10-16T05:46:36;10.10;;;2.50;;
5475;SDS011;2760;50.000;9.194;2022-10-16T05:49:03;2.50;;;2.30;;
5475;SDS011;2760;50.000;9.194;2022-10-16T05:51:30;10.27;;;2.90;;
5475;SDS011;2760;50.000;9.194;2022-10-16T05:53:59;3.43;;;3.13;;
5475;SDS011;2760;50.000;9.194;2022-10-16T05:56:26;4.13;;;3.70;;
5475;SDS011;2760;50.000;9.194;2022-10-16T05:58:53;5.77;;;3.40;;
5475;SDS011;2760;50.000;9.194;2022-10-16T06:01:20;6.40;;;3.03;;
5475;SDS011;2760;50.000;9.194;2022-10-16T06:03:49;3.50;;;3.20;;
5475;SDS011;2760;50.000;9.194;2022-10-16T06:06:17;4.40;;;4.00;;
5475;SDS011;2760;50.000;9.194;2022-10-16T06:08:46;5.20;;;4.70;;
5475;SDS011;2760;50.000;9.194;2022-10-16T06:11:16;6.33;;;4.10;;
5475;SDS011;2760;50.000;9.194;2022-10-16T06:13:44;10.80;;;5.30;;
5475;SDS011;2760;50.000;9.194;2022-10-16T06:16:15;5.80;;;5.00;;
5475;SDS011;2760;50.000;9.194;2022-10-16T06:18:42;5.63;;;4.40;;
5475;SDS011;2760;50.000;9.194;2022-10-16T06:21:09;5.13;;;4.73;;
5475;SDS011;2760;50.000;9.194;2022-10-16T06:23:38;12.13;;;5.43;;
5475;SDS011;2760;50.000;9.194;2022-10-16T06:26:06;5.97;;;4.20;;
5475;SDS011;2760;50.000;9.194;2022-10-16T06:28:34;4.23;;;3.87;;
5475;SDS011;2760;50.000;9.194;2022-10-16T06:31:02;5.10;;;4.60;;
5475;SDS011;2760;50.000;9.194;2022-10-16T06:33:30;4.50;;;4.13;;
5475;SDS011;2760;50.000;9.194;2022-10-16T06:36:01;5.53;;;4.27;;
5475;SDS011;2760;50.000;9.194;2022-10-16T06:38:29;17.37;;;4.03;;
5475;SDS011;2760;50.000;9.194;2022-10-16T06:40:56;9.60;;;5.63;;
5475;SDS011;2760;50.000;9.194;2022-10-16T06:43:23;6.67;;;5.37;;
5475;SDS011;2760;50.000;9.194;2022-10-16T06:45:52;8.77;;;5.40;;
5475;SDS011;2760;50.000;9.194;2022-10-16T06:48:20;5.70;;;5.03;;
5475;SDS011;2760;50.000;9.194;2022-10-16T06:50:54;9.57;;;6.07;;
5475;SDS011;2760;50.000;9.194;2022-10-16T06:53:23;5.90;;;5.03;;
5475;SDS011;2760;50.000;9.194;2022-10-16T06:55:50;5.43;;;4.93;;
5475;SDS011;2760;50.000;9.194;2022-10-16T06:58:17;8.33;;;6.20;;
5475;SDS011;2760;50.000;9.194;2022-10-16T07:00:44;5.10;;;4.60;;
5475;SDS011;2760;50.000;9.194;2022-10-16T07:03:13;9.47;;;4.60;;
5475;SDS011;2760;50.000;9.194;2022-10-16T07:05:41;6.97;;;5.30;;
5475;SDS011;2760;50.000;9.194;2022-10-16T07:08:08;4.93;;;4.50;;
5475;SDS011;2760;50.000;9.194;2022-10-16T07:10:35;5.30;;;4.80;;
5475;SDS011;2760;50.000;9.194;2022-10-16T07:13:02;7.10;;;5.00;;
5475;SDS011;2760;50.000;9.194;2022-10-16T07:15:29;5.10;;;4.60;;
5475;SDS011;2760;50.000;9.194;2022-10-16T07:17:56;6.70;;;5.30;;
5475;SDS011;2760;50.000;9.194;2022-10-16T07:20:25;8.27;;;5.63;;
5475;SDS011;2760;50.000;9.194;2022-10-16T07:22:52;8.73;;;6.60;;
5475;SDS011;2760;50.000;9.194;2022-10-16T07:25:19;11.73;;;6.70;;
5475;SDS011;2760;50.000;9.194;2022-10-16T07:27:46;10.53;;;8.50;;
5475;SDS011;2760;50.000;9.194;2022-10-16T07:30:13;12.43;;;7.97;;
5475;SDS011;2760;50.000;9.194;2022-10-16T07:32:40;9.73;;;6.73;;
5475;SDS011;2760;50.000;9.194;2022-10-16T07:35:07;10.80;;;7.77;;
5475;SDS011;2760;50.000;9.194;2022-10-16T07:37:36;8.80;;;6.43;;
5475;SDS011;2760;50.000;9.194;2022-10-16T07:40:03;11.70;;;6.77;;
5475;SDS011;2760;50.000;9.194;2022-10-16T07:42:31;9.40;;;5.50;;
5475;SDS011;2760;50.000;9.194;2022-10-16T07:44:58;6.17;;;5.67;;
5475;SDS011;2760;50.000;9.194;2022-10-16T07:47:25;11.90;;;5.47;;
5475;SDS011;2760;50.000;9.194;2022-10-16T07:49:52;8.00;;;6.70;;
5475;SDS011;2760;50.000;9.194;2022-10-16T07:52:21;14.57;;;7.67;;
5475;SDS011;2760;50.000;9.194;2022-10-16T07:54:50;10.13;;;7.83;;
5475;SDS011;2760;50.000;9.194;2022-10-16T07:57:17;18.83;;;9.07;;
5475;SDS011;2760;50.000;9.194;2022-10-16T07:59:45;11.00;;;9.37;;
5475;SDS011;2760;50.000;9.194;2022-10-16T08:02:14;12.67;;;8.50;;
5475;SDS011;2760;50.000;9.194;2022-10-16T08:04:41;8.07;;;7.27;;
5475;SDS011;2760;50.000;9.194;2022-10-16T08:07:08;7.00;;;5.23;;
5475;SDS011;2760;50.000;9.194;2022-10-16T08:09:35;9.33;;;6.30;;
5475;SDS011;2760;50.000;9.194;2022-10-16T08:12:04;11.30;;;6.17;;
5475;SDS011;2760;50.000;9.194;2022-10-16T08:14:35;9.80;;;7.37;;
5475;SDS011;2760;50.000;9.194;2022-10-16T08:17:02;10.13;;;7.17;;
5475;SDS011;2760;50.000;9.194;2022-10-16T08:19:32;9.03;;;7.00;;
5475;SDS011;2760;50.000;9.194;2022-10-16T08:21:59;11.33;;;6.80;;
5475;SDS011;2760;50.000;9.194;2022-10-16T08:24:27;15.60;;;8.70;;
5475;SDS011;2760;50.000;9.194;2022-10-16T08:26:55;16.40;;;7.60;;
5475;SDS011;2760;50.000;9.194;2022-10-16T08:29:24;6.87;;;6.17;;
5475;SDS011;2760;50.000;9.194;2022-10-16T08:31:51;12.30;;;6.27;;
5475;SDS011;2760;50.000;9.194;2022-10-16T08:34:18;14.07;;;8.80;;
5475;SDS011;2760;50.000;9.194;2022-10-16T08:36:45;8.43;;;6.80;;
5475;SDS011;2760;50.000;9.194;2022-10-16T08:39:12;7.23;;;5.73;;
5475;SDS011;2760;50.000;9.194;2022-10-16T08:41:56;14.97;;;9.10;;
5475;SDS011;2760;50.000;9.194;2022-10-16T08:47:43;8.63;;;6.67;;
5475;SDS011;2760;50.000;9.194;2022-10-16T08:50:17;9.97;;;7.30;;
5475;SDS011;2760;50.000;9.194;2022-10-16T08:52:49;6.97;;;6.30;;
5475;SDS011;2760;50.000;9.194;2022-10-16T08:55:20;6.63;;;6.03;;
5475;SDS011;2760;50.000;9.194;2022-10-16T08:57:55;9.03;;;7.10;;
5475;SDS011;2760;50.000;9.194;2022-10-16T09:00:24;12.53;;;7.20;;
5475;SDS011;2760;50.000;9.194;2022-10-16T09:02:55;10.63;;;6.70;;
5475;SDS011;2760;50.000;9.194;2022-10-16T09:05:40;11.40;;;6.23;;
5475;SDS011;2760;50.000;9.194;2022-10-16T09:08:23;4.87;;;4.13;;
5475;SDS011;2760;50.000;9.194;2022-10-16T09:10:56;20.10;;;5.33;;
5475;SDS011;2760;50.000;9.194;2022-10-16T09:13:27;8.30;;;5.07;;
5475;SDS011;2760;50.000;9.194;2022-10-16T09:16:01;7.73;;;5.73;;
5475;SDS011;2760;50.000;9.194;2022-10-16T09:18:42;6.17;;;5.67;;
5475;SDS011;2760;50.000;9.194;2022-10-16T09:21:18;7.67;;;5.60;;
5475;SDS011;2760;50.000;9.194;2022-10-16T09:23:49;9.80;;;6.17;;
5475;SDS011;2760;50.000;9.194;2022-10-16T09:26:17;5.63;;;4.60;;
5475;SDS011;2760;50.000;9.194;2022-10-16T09:28:47;6.30;;;5.00;;
5475;SDS011;2760;50.000;9.194;2022-10-16T09:31:17;13.90;;;6.20;;
5475;SDS011;2760;50.000;9.194;2022-10-16T09:33:47;7.50;;;5.53;;
5475;SDS011;2760;50.000;9.194;2022-10-16T09:36:18;11.40;;;8.07;;
5475;SDS011;2760;50.000;9.194;2022-10-16T09:38:47;8.23;;;6.63;;
5475;SDS011;2760;50.000;9.194;2022-10-16T09:41:16;6.33;;;4.80;;
5475;SDS011;2760;50.000;9.194;2022-10-16T09:43:49;6.53;;;5.43;;
5475;SDS011;2760;50.000;9.194;2022-10-16T09:46:29;6.33;;;5.30;;
5475;SDS011;2760;50.000;9.194;2022-10-16T09:48:57;5.30;;;4.80;;
5475;SDS011;2760;50.000;9.194;2022-10-16T09:51:26;5.43;;;3.97;;
5475;SDS011;2760;50.000;9.194;2022-10-16T09:53:55;4.60;;;4.17;;
5475;SDS011;2760;50.000;9.194;2022-10-16T09:56:25;4.10;;;3.70;;
5475;SDS011;2760;50.000;9.194;2022-10-16T09:58:55;6.60;;;3.80;;
5475;SDS011;2760;50.000;9.194;2022-10-16T10:01:24;4.80;;;3.40;;
5475;SDS011;2760;50.000;9.194;2022-10-16T10:03:57;11.40;;;4.70;;
5475;SDS011;2760;50.000;9.194;2022-10-16T10:06:28;6.07;;;3.93;;
5475;SDS011;2760;50.000;9.194;2022-10-16T10:08:59;3.40;;;3.10;;
5475;SDS011;2760;50.000;9.194;2022-10-16T10:11:39;6.83;;;3.37;;
5475;SDS011;2760;50.000;9.194;2022-10-16T10:14:10;5.07;;;3.60;;
5475;SDS011;2760;50.000;9.194;2022-10-16T10:16:45;5.50;;;3.57;;
5475;SDS011;2760;50.000;9.194;2022-10-16T10:19:16;4.17;;;3.73;;
5475;SDS011;2760;50.000;9.194;2022-10-16T10:21:44;6.10;;;4.13;;
5475;SDS011;2760;50.000;9.194;2022-10-16T10:24:12;6.17;;;4.67;;
5475;SDS011;2760;50.000;9.194;2022-10-16T10:26:41;3.73;;;3.20;;
5475;SDS011;2760;50.000;9.194;2022-10-16T10:29:18;4.73;;;4.20;;
5475;SDS011;2760;50.000;9.194;2022-10-16T10:31:59;4.47;;;3.73;;
5475;SDS011;2760;50.000;9.194;2022-10-16T10:34:38;4.00;;;3.43;;
5475;SDS011;2760;50.000;9.194;2022-10-16T10:37:22;4.83;;;3.50;;
5475;SDS011;2760;50.000;9.194;2022-10-16T10:39:56;3.57;;;3.27;;
5475;SDS011;2760;50.000;9.194;2022-10-16T10:42:34;3.20;;;2.90;;
5475;SDS011;2760;50.000;9.194;2022-10-16T10:45:12;2.73;;;2.27;;
5475;SDS011;2760;50.000;9.194;2022-10-16T10:47:50;2.00;;;1.70;;
5475;SDS011;2760;50.000;9.194;2022-10-16T10:50:26;1.50;;;1.40;;
5475;SDS011;2760;50.000;9.194;2022-10-16T10:53:04;2.67;;;1.87;;
5475;SDS011;2760;50.000;9.194;2022-10-16T10:55:39;3.33;;;1.97;;
5475;SDS011;2760;50.000;9.194;2022-10-16T10:58:16;3.67;;;2.27;;
5475;SDS011;2760;50.000;9.194;2022-10-16T11:01:10;3.83;;;1.60;;
5475;SDS011;2760;50.000;9.194;2022-10-16T11:03:46;1.97;;;1.67;;
5475;SDS011;2760;50.000;9.194;2022-10-16T11:06:32;1.77;;;1.50;;
5475;SDS011;2760;50.000;9.194;2022-10-16T11:09:02;1.80;;;1.40;;
5475;SDS011;2760;50.000;9.194;2022-10-16T11:11:36;1.80;;;1.67;;
5475;SDS011;2760;50.000;9.194;2022-10-16T11:14:10;2.00;;;1.50;;
5475;SDS011;2760;50.000;9.194;2022-10-16T11:16:44;1.70;;;1.60;;
5475;SDS011;2760;50.000;9.194;2022-10-16T11:19:22;2.70;;;1.57;;
5475;SDS011;2760;50.000;9.194;2022-10-16T11:22:00;1.43;;;1.33;;
5475;SDS011;2760;50.000;9.194;2022-10-16T11:24:34;2.77;;;2.40;;
5475;SDS011;2760;50.000;9.194;2022-10-16T11:27:07;4.00;;;1.60;;
5475;SDS011;2760;50.000;9.194;2022-10-16T11:29:36;8.63;;;1.40;;
5475;SDS011;2760;50.000;9.194;2022-10-16T11:32:15;4.80;;;1.57;;
5475;SDS011;2760;50.000;9.194;2022-10-16T11:34:51;1.80;;;1.60;;
5475;SDS011;2760;50.000;9.194;2022-10-16T11:37:24;1.80;;;1.57;;
5475;SDS011;2760;50.000;9.194;2022-10-16T11:39:58;3.07;;;1.60;;
5475;SDS011;2760;50.000;9.194;2022-10-16T11:42:30;2.43;;;1.30;;
5475;SDS011;2760;50.000;9.194;2022-10-16T11:45:03;1.80;;;1.70;;
5475;SDS011;2760;50.000;9.194;2022-10-16T11:47:40;2.33;;;1.20;;
5475;SDS011;2760;50.000;9.194;2022-10-16T11:50:13;3.07;;;1.20;;
5475;SDS011;2760;50.000;9.194;2022-10-16T11:52:51;1.80;;;1.10;;
5475;SDS011;2760;50.000;9.194;2022-10-16T11:55:22;1.63;;;1.40;;
5475;SDS011;2760;50.000;9.194;2022-10-16T11:57:57;3.83;;;2.53;;
5475;SDS011;2760;50.000;9.194;2022-10-16T12:00:28;4.33;;;3.13;;
5475;SDS011;2760;50.000;9.194;2022-10-16T12:03:03;1.50;;;1.20;;
5475;SDS011;2760;50.000;9.194;2022-10-16T12:05:43;2.70;;;1.40;;
5475;SDS011;2760;50.000;9.194;2022-10-16T12:08:24;1.93;;;1.83;;
5475;SDS011;2760;50.000;9.194;2022-10-16T12:10:53;3.60;;;1.47;;
5475;SDS011;2760;50.000;9.194;2022-10-16T12:13:30;1.43;;;1.33;;
5475;SDS011;2760;50.000;9.194;2022-10-16T12:16:19;3.17;;;1.60;;
5475;SDS011;2760;50.000;9.194;2022-10-16T12:18:48;3.67;;;1.53;;
5475;SDS011;2760;50.000;9.194;2022-10-16T12:21:17;2.20;;;1.37;;
5475;SDS011;2760;50.000;9.194;2022-10-16T12:23:48;4.00;;;1.67;;
5475;SDS011;2760;50.000;9.194;2022-10-16T12:26:23;1.80;;;1.43;;
5475;SDS011;2760;50.000;9.194;2022-10-16T12:28:51;3.70;;;1.40;;
5475;SDS011;2760;50.000;9.194;2022-10-16T12:31:19;2.90;;;1.60;;
5475;SDS011;2760;50.000;9.194;2022-10-16T12:33:55;1.83;;;1.50;;
5475;SDS011;2760;50.000;9.194;2022-10-16T12:36:30;2.97;;;1.57;;
5475;SDS011;2760;50.000;9.194;2022-10-16T12:38:59;2.43;;;1.30;;
5475;SDS011;2760;50.000;9.194;2022-10-16T12:41:27;2.27;;;1.47;;
5475;SDS011;2760;50.000;9.194;2022-10-16T12:43:56;1.60;;;1.50;;
5475;SDS011;2760;50.000;9.194;2022-10-16T12:46:34;1.97;;;1.60;;
5475;SDS011;2760;50.000;9.194;2022-10-16T12:49:05;1.30;;;1.20;;
5475;SDS011;2760;50.000;9.194;2022-10-16T12:51:48;3.10;;;1.50;;
5475;SDS011;2760;50.000;9.194;2022-10-16T12:54:16;2.93;;;1.50;;
5475;SDS011;2760;50.000;9.194;2022-10-16T12:56:48;1.93;;;1.67;;
5475;SDS011;2760;50.000;9.194;2022-10-16T12:59:28;2.63;;;1.60;;
5475;SDS011;2760;50.000;9.194;2022-10-16T13:02:14;1.60;;;1.50;;
5475;SDS011;2760;50.000;9.194;2022-10-16T13:05:10;3.67;;;2.07;;
5475;SDS011;2760;50.000;9.194;2022-10-16T13:08:02;2.23;;;1.87;;
5475;SDS011;2760;50.000;9.194;2022-10-16T13:10:41;1.93;;;1.80;;
5475;SDS011;2760;50.000;9.194;2022-10-16T13:13:29;1.73;;;1.63;;
5475;SDS011;2760;50.000;9.194;2022-10-16T13:16:08;3.50;;;1.60;;
5475;SDS011;2760;50.000;9.194;2022-10-16T13:18:44;1.70;;;1.60;;
5475;SDS011;2760;50.000;9.194;2022-10-16T13:21:25;2.07;;;1.97;;
5475;SDS011;2760;50.000;9.194;2022-10-16T13:24:08;2.43;;;2.10;;
5475;SDS011;2760;50.000;9.194;2022-10-16T13:26:45;4.33;;;1.80;;
5475;SDS011;2760;50.000;9.194;2022-10-16T13:29:19;4.70;;;2.30;;
5475;SDS011;2760;50.000;9.194;2022-10-16T13:31:46;5.97;;;2.87;;
5475;SDS011;2760;50.000;9.194;2022-10-16T13:34:14;2.53;;;2.33;;
5475;SDS011;2760;50.000;9.194;2022-10-16T13:36:48;4.50;;;2.83;;
5475;SDS011;2760;50.000;9.194;2022-10-16T13:39:22;2.30;;;2.10;;
5475;SDS011;2760;50.000;9.194;2022-10-16T13:42:03;4.80;;;2.70;;
5475;SDS011;2760;50.000;9.194;2022-10-16T13:44:35;2.60;;;2.37;;
5475;SDS011;2760;50.000;9.194;2022-10-16T13:47:16;2.13;;;2.00;;
5475;SDS011;2760;50.000;9.194;2022-10-16T13:49:44;10.13;;;6.80;;
5475;SDS011;2760;50.000;9.194;2022-10-16T13:52:18;9.73;;;4.63;;
5475;SDS011;2760;50.000;9.194;2022-10-16T13:54:47;6.37;;;5.77;;
5475;SDS011;2760;50.000;9.194;2022-10-16T13:57:14;4.27;;;3.00;;
5475;SDS011;2760;50.000;9.194;2022-10-16T13:59:42;3.40;;;2.70;;
5475;SDS011;2760;50.000;9.194;2022-10-16T14:02:14;2.37;;;2.17;;
5475;SDS011;2760;50.000;9.194;2022-10-16T14:04:48;3.33;;;2.67;;
5475;SDS011;2760;50.000;9.194;2022-10-16T14:07:18;3.13;;;2.77;;
5475;SDS011;2760;50.000;9.194;2022-10-16T14:09:51;6.83;;;2.70;;
5475;SDS011;2760;50.000;9.194;2022-10-16T14:12:19;3.50;;;2.00;;
5475;SDS011;2760;50.000;9.194;2022-10-16T14:14:48;2.80;;;2.20;;
5475;SDS011;2760;50.000;9.194;2022-10-16T14:17:18;4.40;;;3.73;;
5475;SDS011;2760;50.000;9.194;2022-10-16T14:19:47;7.20;;;2.00;;
5475;SDS011;2760;50.000;9.194;2022-10-16T14:22:21;4.03;;;1.73;;
5475;SDS011;2760;50.000;9.194;2022-10-16T14:24:58;3.77;;;3.20;;
5475;SDS011;2760;50.000;9.194;2022-10-16T14:27:27;7.20;;;2.97;;
5475;SDS011;2760;50.000;9.194;2022-10-16T14:30:12;5.20;;;2.60;;
5475;SDS011;2760;50.000;9.194;2022-10-16T14:32:52;2.23;;;2.03;;
5475;SDS011;2760;50.000;9.194;2022-10-16T14:35:27;3.87;;;2.60;;
5475;SDS011;2760;50.000;9.194;2022-10-16T14:37:57;5.73;;;3.40;;
5475;SDS011;2760;50.000;9.194;2022-10-16T14:40:27;4.50;;;2.70;;
5475;SDS011;2760;50.000;9.194;2022-10-16T14:42:55;2.80;;;2.20;;
5475;SDS011;2760;50.000;9.194;2022-10-16T14:45:23;5.57;;;2.40;;
5475;SDS011;2760;50.000;9.194;2022-10-16T14:47:52;4.23;;;2.40;;
5475;SDS011;2760;50.000;9.194;2022-10-16T14:50:21;4.37;;;3.60;;
5475;SDS011;2760;50.000;9.194;2022-10-16T14:52:48;4.67;;;3.47;;
5475;SDS011;2760;50.000;9.194;2022-10-16T14:55:15;4.60;;;3.70;;
5475;SDS011;2760;50.000;9.194;2022-10-16T14:57:44;6.83;;;4.43;;
5475;SDS011;2760;50.000;9.194;2022-10-16T15:00:15;6.40;;;5.07;;
5475;SDS011;2760;50.000;9.194;2022-10-16T15:02:44;8.70;;;5.73;;
5475;SDS011;2760;50.000;9.194;2022-10-16T15:05:12;6.03;;;5.40;;
5475;SDS011;2760;50.000;9.194;2022-10-16T15:07:42;7.90;;;4.33;;
5475;SDS011;2760;50.000;9.194;2022-10-16T15:10:09;10.23;;;4.30;;
5475;SDS011;2760;50.000;9.194;2022-10-16T15:12:36;5.53;;;3.87;;
5475;SDS011;2760;50.000;9.194;2022-10-16T15:15:14;4.43;;;4.03;;
5475;SDS011;2760;50.000;9.194;2022-10-16T15:18:01;6.63;;;4.57;;
5475;SDS011;2760;50.000;9.194;2022-10-16T15:20:30;5.20;;;3.57;;
5475;SDS011;2760;50.000;9.194;2022-10-16T15:22:59;3.80;;;3.40;;
5475;SDS011;2760;50.000;9.194;2022-10-16T15:25:32;3.30;;;3.00;;
5475;SDS011;2760;50.000;9.194;2022-10-16T15:28:03;17.83;;;4.40;;
5475;SDS011;2760;50.000;9.194;2022-10-16T15:30:32;7.10;;;4.50;;
5475;SDS011;2760;50.000;9.194;2022-10-16T15:33:02;8.17;;;4.77;;
5475;SDS011;2760;50.000;9.194;2022-10-16T15:35:30;6.67;;;4.90;;
5475;SDS011;2760;50.000;9.194;2022-10-16T15:37:57;6.70;;;5.27;;